TJNR/NRR METAR and TAF weather

Enter ICAO airport designator
Station Type Date Time Source
TJNR METAR 2019/04/25 07:53 UTC NOAA

TJNR 250753Z AUTO 31003KT 10SM SCT030 22/19 A2999 RMK AO2 SLP156 T02220189


Station Type Date Time Source
TJNR Decoded METAR 2019/04/25 07:53 UTC NOAA

ROOSEVELT ROADS PUERTO RICO, PR, United States (TJNR) 18-15N 65-38W 10M
Apr 25, 2019 - 03:53 AM EDT / 2019.04.25 0753 UTC
Wind: from the NW (310 degrees) at 3 MPH (3 KT):0
Visibility: 10 mile(s):0
Sky conditions: partly cloudy
Temperature: 72.0 F (22.2 C)
Dew Point: 66.0 F (18.9 C)
Relative Humidity: 81%
Pressure (altimeter): 29.99 in. Hg (1015 hPa)
ob: TJNR 250753Z AUTO 31003KT 10SM SCT030 22/19 A2999 RMK AO2 SLP156 T02220189
cycle: 8

Station Type Date Time Source
TJNR TAF UTC NOAA

Error!

Example: see airport list